sensor_id;sensor_type;location;lat;lon;timestamp;P1;durP1;ratioP1;P2;durP2;ratioP2
11935;SDS011;6027;48.576;9.180;2023-06-14T00:00:13;10.82;;;10.13;;
11935;SDS011;6027;48.576;9.180;2023-06-14T00:02:40;9.52;;;8.73;;
11935;SDS011;6027;48.576;9.180;2023-06-14T00:05:06;9.18;;;8.50;;
11935;SDS011;6027;48.576;9.180;2023-06-14T00:07:36;8.55;;;7.78;;
11935;SDS011;6027;48.576;9.180;2023-06-14T00:10:04;7.82;;;7.25;;
11935;SDS011;6027;48.576;9.180;2023-06-14T00:12:30;9.82;;;9.10;;
11935;SDS011;6027;48.576;9.180;2023-06-14T00:14:56;9.77;;;9.07;;
11935;SDS011;6027;48.576;9.180;2023-06-14T00:17:22;9.18;;;8.50;;
11935;SDS011;6027;48.576;9.180;2023-06-14T00:19:47;9.40;;;8.77;;
11935;SDS011;6027;48.576;9.180;2023-06-14T00:22:13;8.73;;;8.02;;
11935;SDS011;6027;48.576;9.180;2023-06-14T00:24:38;10.13;;;9.13;;
11935;SDS011;6027;48.576;9.180;2023-06-14T00:27:04;9.40;;;8.50;;
11935;SDS011;6027;48.576;9.180;2023-06-14T00:29:30;9.35;;;8.50;;
11935;SDS011;6027;48.576;9.180;2023-06-14T00:31:56;8.63;;;7.93;;
11935;SDS011;6027;48.576;9.180;2023-06-14T00:34:21;9.55;;;8.82;;
11935;SDS011;6027;48.576;9.180;2023-06-14T00:36:47;9.27;;;8.48;;
11935;SDS011;6027;48.576;9.180;2023-06-14T00:39:12;10.40;;;9.40;;
11935;SDS011;6027;48.576;9.180;2023-06-14T00:41:37;9.68;;;8.77;;
11935;SDS011;6027;48.576;9.180;2023-06-14T00:44:04;9.93;;;9.13;;
11935;SDS011;6027;48.576;9.180;2023-06-14T00:46:29;10.10;;;9.07;;
11935;SDS011;6027;48.576;9.180;2023-06-14T00:48:55;9.43;;;8.73;;
11935;SDS011;6027;48.576;9.180;2023-06-14T00:51:22;8.25;;;7.70;;
11935;SDS011;6027;48.576;9.180;2023-06-14T00:53:48;8.80;;;8.02;;
11935;SDS011;6027;48.576;9.180;2023-06-14T00:56:13;10.85;;;10.07;;
11935;SDS011;6027;48.576;9.180;2023-06-14T00:58:40;10.07;;;9.38;;
11935;SDS011;6027;48.576;9.180;2023-06-14T01:01:06;8.85;;;8.25;;
11935;SDS011;6027;48.576;9.180;2023-06-14T01:03:32;10.25;;;9.50;;
11935;SDS011;6027;48.576;9.180;2023-06-14T01:06:41;9.07;;;8.38;;
11935;SDS011;6027;48.576;9.180;2023-06-14T01:14:28;8.18;;;7.50;;
11935;SDS011;6027;48.576;9.180;2023-06-14T01:16:56;9.52;;;8.65;;
11935;SDS011;6027;48.576;9.180;2023-06-14T01:19:25;8.98;;;8.32;;
11935;SDS011;6027;48.576;9.180;2023-06-14T01:21:53;9.15;;;8.40;;
11935;SDS011;6027;48.576;9.180;2023-06-14T01:24:20;7.75;;;7.15;;
11935;SDS011;6027;48.576;9.180;2023-06-14T01:26:50;8.80;;;8.10;;
11935;SDS011;6027;48.576;9.180;2023-06-14T01:29:21;9.20;;;8.50;;
11935;SDS011;6027;48.576;9.180;2023-06-14T01:31:49;8.73;;;8.13;;
11935;SDS011;6027;48.576;9.180;2023-06-14T01:34:15;10.25;;;9.50;;
11935;SDS011;6027;48.576;9.180;2023-06-14T01:36:41;9.30;;;8.63;;
11935;SDS011;6027;48.576;9.180;2023-06-14T01:39:10;9.00;;;8.35;;
11935;SDS011;6027;48.576;9.180;2023-06-14T01:41:39;8.98;;;8.38;;
11935;SDS011;6027;48.576;9.180;2023-06-14T01:44:05;8.25;;;7.65;;
11935;SDS011;6027;48.576;9.180;2023-06-14T01:46:32;8.45;;;7.85;;
11935;SDS011;6027;48.576;9.180;2023-06-14T01:48:57;11.02;;;8.50;;
11935;SDS011;6027;48.576;9.180;2023-06-14T01:51:23;8.45;;;7.75;;
11935;SDS011;6027;48.576;9.180;2023-06-14T01:53:49;9.75;;;8.95;;
11935;SDS011;6027;48.576;9.180;2023-06-14T01:56:15;9.98;;;9.02;;
11935;SDS011;6027;48.576;9.180;2023-06-14T01:58:41;8.50;;;7.90;;
11935;SDS011;6027;48.576;9.180;2023-06-14T02:01:06;9.13;;;8.43;;
11935;SDS011;6027;48.576;9.180;2023-06-14T02:03:32;8.88;;;8.23;;
11935;SDS011;6027;48.576;9.180;2023-06-14T02:05:57;9.57;;;8.88;;
11935;SDS011;6027;48.576;9.180;2023-06-14T02:08:23;9.07;;;8.38;;
11935;SDS011;6027;48.576;9.180;2023-06-14T02:10:49;10.73;;;9.73;;
11935;SDS011;6027;48.576;9.180;2023-06-14T02:13:14;9.02;;;8.23;;
11935;SDS011;6027;48.576;9.180;2023-06-14T02:15:40;9.82;;;9.10;;
11935;SDS011;6027;48.576;9.180;2023-06-14T02:18:08;9.43;;;8.75;;
11935;SDS011;6027;48.576;9.180;2023-06-14T02:20:35;8.98;;;8.27;;
11935;SDS011;6027;48.576;9.180;2023-06-14T02:23:01;10.80;;;9.75;;
11935;SDS011;6027;48.576;9.180;2023-06-14T02:25:26;9.48;;;8.88;;
11935;SDS011;6027;48.576;9.180;2023-06-14T02:27:53;9.48;;;8.85;;
11935;SDS011;6027;48.576;9.180;2023-06-14T02:30:20;8.70;;;8.07;;
11935;SDS011;6027;48.576;9.180;2023-06-14T02:32:46;10.73;;;8.55;;
11935;SDS011;6027;48.576;9.180;2023-06-14T02:35:13;12.60;;;9.52;;
11935;SDS011;6027;48.576;9.180;2023-06-14T02:37:39;9.50;;;8.75;;
11935;SDS011;6027;48.576;9.180;2023-06-14T02:40:05;9.80;;;8.93;;
11935;SDS011;6027;48.576;9.180;2023-06-14T02:42:31;8.93;;;8.32;;
11935;SDS011;6027;48.576;9.180;2023-06-14T02:44:57;9.48;;;8.77;;
11935;SDS011;6027;48.576;9.180;2023-06-14T02:47:22;8.68;;;7.95;;
11935;SDS011;6027;48.576;9.180;2023-06-14T02:49:48;10.50;;;9.65;;
11935;SDS011;6027;48.576;9.180;2023-06-14T02:52:14;9.68;;;8.93;;
11935;SDS011;6027;48.576;9.180;2023-06-14T02:54:40;9.35;;;8.32;;
11935;SDS011;6027;48.576;9.180;2023-06-14T02:57:05;9.38;;;8.57;;
11935;SDS011;6027;48.576;9.180;2023-06-14T02:59:32;10.27;;;9.48;;
11935;SDS011;6027;48.576;9.180;2023-06-14T03:01:58;9.15;;;8.45;;
11935;SDS011;6027;48.576;9.180;2023-06-14T03:04:24;10.35;;;9.55;;
11935;SDS011;6027;48.576;9.180;2023-06-14T03:06:51;9.90;;;9.13;;
11935;SDS011;6027;48.576;9.180;2023-06-14T03:09:18;9.48;;;8.68;;
11935;SDS011;6027;48.576;9.180;2023-06-14T03:11:44;10.75;;;9.95;;
11935;SDS011;6027;48.576;9.180;2023-06-14T03:14:10;9.70;;;8.93;;
11935;SDS011;6027;48.576;9.180;2023-06-14T03:16:36;10.18;;;9.27;;
11935;SDS011;6027;48.576;9.180;2023-06-14T03:19:02;8.70;;;7.95;;
11935;SDS011;6027;48.576;9.180;2023-06-14T03:21:28;10.57;;;9.70;;
11935;SDS011;6027;48.576;9.180;2023-06-14T03:23:53;9.65;;;8.85;;
11935;SDS011;6027;48.576;9.180;2023-06-14T03:26:19;8.75;;;8.13;;
11935;SDS011;6027;48.576;9.180;2023-06-14T03:28:45;10.57;;;9.80;;
11935;SDS011;6027;48.576;9.180;2023-06-14T03:31:11;8.93;;;7.88;;
11935;SDS011;6027;48.576;9.180;2023-06-14T03:33:38;9.25;;;8.45;;
11935;SDS011;6027;48.576;9.180;2023-06-14T03:36:04;10.43;;;9.27;;
11935;SDS011;6027;48.576;9.180;2023-06-14T03:38:30;9.38;;;8.68;;
11935;SDS011;6027;48.576;9.180;2023-06-14T03:40:56;11.32;;;10.52;;
11935;SDS011;6027;48.576;9.180;2023-06-14T03:43:21;10.35;;;9.57;;
11935;SDS011;6027;48.576;9.180;2023-06-14T03:45:47;10.68;;;9.98;;
11935;SDS011;6027;48.576;9.180;2023-06-14T03:48:12;10.55;;;9.65;;
11935;SDS011;6027;48.576;9.180;2023-06-14T03:50:37;9.88;;;9.18;;
11935;SDS011;6027;48.576;9.180;2023-06-14T03:53:03;11.15;;;10.27;;
11935;SDS011;6027;48.576;9.180;2023-06-14T03:55:30;11.10;;;10.30;;
11935;SDS011;6027;48.576;9.180;2023-06-14T03:57:59;12.00;;;11.10;;
11935;SDS011;6027;48.576;9.180;2023-06-14T04:00:24;11.38;;;10.27;;
11935;SDS011;6027;48.576;9.180;2023-06-14T04:02:51;10.98;;;9.93;;
11935;SDS011;6027;48.576;9.180;2023-06-14T04:05:16;10.02;;;9.10;;
11935;SDS011;6027;48.576;9.180;2023-06-14T04:07:44;12.45;;;11.35;;
11935;SDS011;6027;48.576;9.180;2023-06-14T04:10:14;10.45;;;9.68;;
11935;SDS011;6027;48.576;9.180;2023-06-14T04:12:41;10.95;;;10.15;;
11935;SDS011;6027;48.576;9.180;2023-06-14T04:15:07;11.27;;;10.38;;
11935;SDS011;6027;48.576;9.180;2023-06-14T04:17:33;10.95;;;10.05;;
11935;SDS011;6027;48.576;9.180;2023-06-14T04:20:00;11.75;;;10.73;;
11935;SDS011;6027;48.576;9.180;2023-06-14T04:22:26;10.52;;;9.60;;
11935;SDS011;6027;48.576;9.180;2023-06-14T04:24:56;11.63;;;10.65;;
11935;SDS011;6027;48.576;9.180;2023-06-14T04:27:25;13.80;;;11.80;;
11935;SDS011;6027;48.576;9.180;2023-06-14T04:29:52;13.70;;;12.48;;
11935;SDS011;6027;48.576;9.180;2023-06-14T04:32:25;10.75;;;9.95;;
11935;SDS011;6027;48.576;9.180;2023-06-14T04:34:57;12.30;;;11.30;;
11935;SDS011;6027;48.576;9.180;2023-06-14T04:37:24;13.73;;;12.50;;
11935;SDS011;6027;48.576;9.180;2023-06-14T04:39:53;11.32;;;10.40;;
11935;SDS011;6027;48.576;9.180;2023-06-14T04:42:21;12.88;;;11.80;;
11935;SDS011;6027;48.576;9.180;2023-06-14T04:44:50;13.70;;;12.65;;
11935;SDS011;6027;48.576;9.180;2023-06-14T04:47:16;13.27;;;11.95;;
11935;SDS011;6027;48.576;9.180;2023-06-14T04:49:42;12.98;;;11.90;;
11935;SDS011;6027;48.576;9.180;2023-06-14T04:52:07;13.00;;;11.27;;
11935;SDS011;6027;48.576;9.180;2023-06-14T04:54:35;12.07;;;11.18;;
11935;SDS011;6027;48.576;9.180;2023-06-14T04:57:02;14.38;;;13.02;;
11935;SDS011;6027;48.576;9.180;2023-06-14T04:59:29;14.88;;;13.77;;
11935;SDS011;6027;48.576;9.180;2023-06-14T05:01:58;12.68;;;11.57;;
11935;SDS011;6027;48.576;9.180;2023-06-14T05:04:25;11.85;;;10.80;;
11935;SDS011;6027;48.576;9.180;2023-06-14T05:06:51;13.73;;;12.50;;
11935;SDS011;6027;48.576;9.180;2023-06-14T05:09:19;14.02;;;12.65;;
11935;SDS011;6027;48.576;9.180;2023-06-14T05:11:45;13.27;;;12.27;;
11935;SDS011;6027;48.576;9.180;2023-06-14T05:14:10;13.43;;;12.18;;
11935;SDS011;6027;48.576;9.180;2023-06-14T05:16:37;11.45;;;10.35;;
11935;SDS011;6027;48.576;9.180;2023-06-14T05:19:04;11.07;;;10.18;;
11935;SDS011;6027;48.576;9.180;2023-06-14T05:21:30;12.38;;;11.02;;
11935;SDS011;6027;48.576;9.180;2023-06-14T05:23:56;11.05;;;10.15;;
11935;SDS011;6027;48.576;9.180;2023-06-14T05:26:22;12.68;;;11.48;;
11935;SDS011;6027;48.576;9.180;2023-06-14T05:28:56;11.93;;;10.82;;
11935;SDS011;6027;48.576;9.180;2023-06-14T05:31:23;11.65;;;10.68;;
11935;SDS011;6027;48.576;9.180;2023-06-14T05:33:49;11.20;;;10.40;;
11935;SDS011;6027;48.576;9.180;2023-06-14T05:36:15;14.10;;;12.80;;
11935;SDS011;6027;48.576;9.180;2023-06-14T05:38:40;13.18;;;12.10;;
11935;SDS011;6027;48.576;9.180;2023-06-14T05:41:06;14.20;;;12.90;;
11935;SDS011;6027;48.576;9.180;2023-06-14T05:43:31;12.20;;;11.20;;
11935;SDS011;6027;48.576;9.180;2023-06-14T05:45:57;11.30;;;10.13;;
11935;SDS011;6027;48.576;9.180;2023-06-14T05:48:22;11.13;;;10.13;;
11935;SDS011;6027;48.576;9.180;2023-06-14T05:50:48;11.00;;;10.05;;
11935;SDS011;6027;48.576;9.180;2023-06-14T05:53:13;11.00;;;10.15;;
11935;SDS011;6027;48.576;9.180;2023-06-14T05:55:39;13.15;;;9.10;;
11935;SDS011;6027;48.576;9.180;2023-06-14T05:58:04;10.57;;;9.77;;
11935;SDS011;6027;48.576;9.180;2023-06-14T06:00:30;10.02;;;9.02;;
11935;SDS011;6027;48.576;9.180;2023-06-14T06:02:56;9.82;;;8.95;;
11935;SDS011;6027;48.576;9.180;2023-06-14T06:05:22;9.68;;;8.77;;
11935;SDS011;6027;48.576;9.180;2023-06-14T06:07:48;9.85;;;8.30;;
11935;SDS011;6027;48.576;9.180;2023-06-14T06:10:14;9.68;;;8.77;;
11935;SDS011;6027;48.576;9.180;2023-06-14T06:12:40;10.32;;;9.43;;
11935;SDS011;6027;48.576;9.180;2023-06-14T06:15:06;9.23;;;8.52;;
11935;SDS011;6027;48.576;9.180;2023-06-14T06:17:32;12.25;;;9.88;;
11935;SDS011;6027;48.576;9.180;2023-06-14T06:19:59;9.90;;;9.10;;
11935;SDS011;6027;48.576;9.180;2023-06-14T06:22:24;9.68;;;8.90;;
11935;SDS011;6027;48.576;9.180;2023-06-14T06:24:50;11.13;;;10.32;;
11935;SDS011;6027;48.576;9.180;2023-06-14T06:27:15;9.75;;;8.95;;
11935;SDS011;6027;48.576;9.180;2023-06-14T06:29:42;12.43;;;11.10;;
11935;SDS011;6027;48.576;9.180;2023-06-14T06:32:08;10.48;;;9.57;;
11935;SDS011;6027;48.576;9.180;2023-06-14T06:34:34;9.98;;;9.15;;
11935;SDS011;6027;48.576;9.180;2023-06-14T06:37:02;10.95;;;9.43;;
11935;SDS011;6027;48.576;9.180;2023-06-14T06:39:28;9.80;;;9.00;;
11935;SDS011;6027;48.576;9.180;2023-06-14T06:41:53;10.35;;;9.35;;
11935;SDS011;6027;48.576;9.180;2023-06-14T06:44:18;10.95;;;10.15;;
11935;SDS011;6027;48.576;9.180;2023-06-14T06:46:44;9.15;;;8.45;;
11935;SDS011;6027;48.576;9.180;2023-06-14T06:49:09;11.10;;;10.20;;
11935;SDS011;6027;48.576;9.180;2023-06-14T06:51:37;11.25;;;9.93;;
11935;SDS011;6027;48.576;9.180;2023-06-14T06:54:02;10.10;;;9.20;;
11935;SDS011;6027;48.576;9.180;2023-06-14T06:56:28;8.70;;;8.10;;
11935;SDS011;6027;48.576;9.180;2023-06-14T06:58:54;10.50;;;9.45;;
11935;SDS011;6027;48.576;9.180;2023-06-14T07:01:19;10.85;;;9.98;;
11935;SDS011;6027;48.576;9.180;2023-06-14T07:03:45;10.75;;;9.85;;
11935;SDS011;6027;48.576;9.180;2023-06-14T07:06:11;10.48;;;9.68;;
11935;SDS011;6027;48.576;9.180;2023-06-14T07:08:36;11.25;;;10.18;;
11935;SDS011;6027;48.576;9.180;2023-06-14T07:11:03;10.15;;;9.18;;
11935;SDS011;6027;48.576;9.180;2023-06-14T07:13:30;10.68;;;9.68;;
11935;SDS011;6027;48.576;9.180;2023-06-14T07:15:59;11.07;;;10.07;;
11935;SDS011;6027;48.576;9.180;2023-06-14T07:18:25;10.63;;;9.82;;
11935;SDS011;6027;48.576;9.180;2023-06-14T07:20:52;10.60;;;9.63;;
11935;SDS011;6027;48.576;9.180;2023-06-14T07:23:19;11.40;;;10.38;;
11935;SDS011;6027;48.576;9.180;2023-06-14T07:25:45;11.50;;;10.48;;
11935;SDS011;6027;48.576;9.180;2023-06-14T07:28:10;11.75;;;10.70;;
11935;SDS011;6027;48.576;9.180;2023-06-14T07:30:36;12.30;;;11.07;;
11935;SDS011;6027;48.576;9.180;2023-06-14T07:33:01;12.35;;;10.45;;
11935;SDS011;6027;48.576;9.180;2023-06-14T07:35:27;12.60;;;11.57;;
11935;SDS011;6027;48.576;9.180;2023-06-14T07:37:52;12.50;;;11.60;;
11935;SDS011;6027;48.576;9.180;2023-06-14T07:40:18;12.13;;;11.07;;
11935;SDS011;6027;48.576;9.180;2023-06-14T07:42:43;11.45;;;10.35;;
11935;SDS011;6027;48.576;9.180;2023-06-14T07:45:09;13.57;;;12.48;;
11935;SDS011;6027;48.576;9.180;2023-06-14T07:47:35;11.98;;;10.98;;
11935;SDS011;6027;48.576;9.180;2023-06-14T07:50:00;13.02;;;11.93;;
11935;SDS011;6027;48.576;9.180;2023-06-14T07:52:26;12.00;;;10.90;;
11935;SDS011;6027;48.576;9.180;2023-06-14T07:54:51;11.85;;;10.20;;
11935;SDS011;6027;48.576;9.180;2023-06-14T07:57:17;10.98;;;10.05;;
11935;SDS011;6027;48.576;9.180;2023-06-14T07:59:45;11.45;;;10.63;;
11935;SDS011;6027;48.576;9.180;2023-06-14T08:02:10;11.85;;;11.05;;
11935;SDS011;6027;48.576;9.180;2023-06-14T08:04:35;11.93;;;10.80;;
11935;SDS011;6027;48.576;9.180;2023-06-14T08:07:01;12.32;;;11.27;;
11935;SDS011;6027;48.576;9.180;2023-06-14T08:09:26;11.05;;;10.10;;
11935;SDS011;6027;48.576;9.180;2023-06-14T08:11:54;10.80;;;9.73;;
11935;SDS011;6027;48.576;9.180;2023-06-14T08:14:20;9.80;;;9.10;;
11935;SDS011;6027;48.576;9.180;2023-06-14T08:16:45;12.35;;;11.13;;
11935;SDS011;6027;48.576;9.180;2023-06-14T08:19:11;12.75;;;11.82;;
11935;SDS011;6027;48.576;9.180;2023-06-14T08:21:37;13.07;;;12.07;;
11935;SDS011;6027;48.576;9.180;2023-06-14T08:24:02;10.90;;;10.15;;
11935;SDS011;6027;48.576;9.180;2023-06-14T08:26:29;12.70;;;11.90;;
11935;SDS011;6027;48.576;9.180;2023-06-14T08:28:55;12.93;;;10.85;;
11935;SDS011;6027;48.576;9.180;2023-06-14T08:31:21;13.07;;;10.73;;
11935;SDS011;6027;48.576;9.180;2023-06-14T08:33:47;10.20;;;9.30;;
11935;SDS011;6027;48.576;9.180;2023-06-14T08:36:12;11.38;;;10.50;;
11935;SDS011;6027;48.576;9.180;2023-06-14T08:38:38;13.95;;;12.77;;
11935;SDS011;6027;48.576;9.180;2023-06-14T08:41:05;11.25;;;10.23;;
11935;SDS011;6027;48.576;9.180;2023-06-14T08:43:31;12.52;;;11.73;;
11935;SDS011;6027;48.576;9.180;2023-06-14T08:45:58;12.90;;;11.95;;
11935;SDS011;6027;48.576;9.180;2023-06-14T08:48:28;13.25;;;12.35;;
11935;SDS011;6027;48.576;9.180;2023-06-14T08:50:55;12.68;;;11.43;;
11935;SDS011;6027;48.576;9.180;2023-06-14T08:53:27;14.32;;;13.23;;
11935;SDS011;6027;48.576;9.180;2023-06-14T08:55:57;13.70;;;12.45;;
11935;SDS011;6027;48.576;9.180;2023-06-14T08:58:27;13.40;;;12.38;;
11935;SDS011;6027;48.576;9.180;2023-06-14T09:01:00;13.63;;;12.43;;
11935;SDS011;6027;48.576;9.180;2023-06-14T09:03:27;13.20;;;12.18;;
11935;SDS011;6027;48.576;9.180;2023-06-14T09:05:59;12.68;;;11.73;;
11935;SDS011;6027;48.576;9.180;2023-06-14T09:08:25;13.38;;;12.05;;
11935;SDS011;6027;48.576;9.180;2023-06-14T09:10:51;13.25;;;12.35;;
11935;SDS011;6027;48.576;9.180;2023-06-14T09:13:17;14.27;;;13.10;;
11935;SDS011;6027;48.576;9.180;2023-06-14T09:15:43;13.35;;;12.23;;
11935;SDS011;6027;48.576;9.180;2023-06-14T09:18:10;12.07;;;10.98;;
11935;SDS011;6027;48.576;9.180;2023-06-14T09:20:36;13.52;;;12.50;;
11935;SDS011;6027;48.576;9.180;2023-06-14T09:23:02;13.23;;;12.07;;
11935;SDS011;6027;48.576;9.180;2023-06-14T09:25:29;11.77;;;10.88;;
11935;SDS011;6027;48.576;9.180;2023-06-14T09:27:55;13.07;;;12.15;;
11935;SDS011;6027;48.576;9.180;2023-06-14T09:30:20;12.63;;;11.60;;
11935;SDS011;6027;48.576;9.180;2023-06-14T09:32:46;11.80;;;10.88;;
11935;SDS011;6027;48.576;9.180;2023-06-14T09:35:12;13.07;;;12.07;;
11935;SDS011;6027;48.576;9.180;2023-06-14T09:37:37;12.40;;;11.52;;
11935;SDS011;6027;48.576;9.180;2023-06-14T09:40:04;11.95;;;10.73;;
11935;SDS011;6027;48.576;9.180;2023-06-14T09:42:30;12.65;;;11.43;;
11935;SDS011;6027;48.576;9.180;2023-06-14T09:44:56;11.02;;;10.30;;
11935;SDS011;6027;48.576;9.180;2023-06-14T09:47:23;13.38;;;12.48;;
11935;SDS011;6027;48.576;9.180;2023-06-14T09:49:50;11.23;;;10.43;;
11935;SDS011;6027;48.576;9.180;2023-06-14T09:52:19;13.20;;;12.05;;
11935;SDS011;6027;48.576;9.180;2023-06-14T09:54:46;12.15;;;11.10;;
11935;SDS011;6027;48.576;9.180;2023-06-14T09:57:13;11.07;;;10.38;;
11935;SDS011;6027;48.576;9.180;2023-06-14T09:59:44;12.20;;;11.00;;
11935;SDS011;6027;48.576;9.180;2023-06-14T10:04:50;12.60;;;11.60;;
11935;SDS011;6027;48.576;9.180;2023-06-14T10:07:23;10.52;;;9.82;;
11935;SDS011;6027;48.576;9.180;2023-06-14T10:09:52;10.98;;;9.98;;
11935;SDS011;6027;48.576;9.180;2023-06-14T10:12:18;11.35;;;10.45;;
11935;SDS011;6027;48.576;9.180;2023-06-14T10:14:50;11.13;;;10.45;;
11935;SDS011;6027;48.576;9.180;2023-06-14T10:17:22;12.95;;;11.68;;
11935;SDS011;6027;48.576;9.180;2023-06-14T10:25:56;11.77;;;10.95;;
11935;SDS011;6027;48.576;9.180;2023-06-14T10:28:22;12.70;;;11.68;;
11935;SDS011;6027;48.576;9.180;2023-06-14T10:33:30;13.68;;;12.25;;
11935;SDS011;6027;48.576;9.180;2023-06-14T10:36:09;11.70;;;10.48;;
11935;SDS011;6027;48.576;9.180;2023-06-14T10:38:36;12.13;;;11.27;;
11935;SDS011;6027;48.576;9.180;2023-06-14T10:41:02;11.85;;;11.02;;
11935;SDS011;6027;48.576;9.180;2023-06-14T10:43:28;11.95;;;11.15;;
11935;SDS011;6027;48.576;9.180;2023-06-14T10:48:41;12.20;;;11.00;;
11935;SDS011;6027;48.576;9.180;2023-06-14T10:51:20;12.02;;;11.23;;
11935;SDS011;6027;48.576;9.180;2023-06-14T10:53:49;10.65;;;9.88;;
11935;SDS011;6027;48.576;9.180;2023-06-14T10:56:50;11.38;;;10.55;;
11935;SDS011;6027;48.576;9.180;2023-06-14T10:59:15;12.10;;;11.20;;
11935;SDS011;6027;48.576;9.180;2023-06-14T11:01:45;12.02;;;11.23;;
11935;SDS011;6027;48.576;9.180;2023-06-14T11:04:46;12.90;;;11.55;;
11935;SDS011;6027;48.576;9.180;2023-06-14T11:12:59;10.57;;;9.90;;
11935;SDS011;6027;48.576;9.180;2023-06-14T11:15:29;11.63;;;10.73;;
11935;SDS011;6027;48.576;9.180;2023-06-14T11:17:55;11.55;;;10.60;;
11935;SDS011;6027;48.576;9.180;2023-06-14T11:20:24;11.80;;;10.82;;
11935;SDS011;6027;48.576;9.180;2023-06-14T11:22:51;12.00;;;11.10;;
11935;SDS011;6027;48.576;9.180;2023-06-14T11:25:17;13.40;;;12.20;;
11935;SDS011;6027;48.576;9.180;2023-06-14T11:27:42;12.85;;;11.82;;
11935;SDS011;6027;48.576;9.180;2023-06-14T11:30:08;11.38;;;10.38;;
11935;SDS011;6027;48.576;9.180;2023-06-14T11:32:35;13.02;;;12.02;;
11935;SDS011;6027;48.576;9.180;2023-06-14T11:35:02;12.23;;;11.13;;
11935;SDS011;6027;48.576;9.180;2023-06-14T11:37:29;10.40;;;9.60;;
11935;SDS011;6027;48.576;9.180;2023-06-14T11:39:56;11.32;;;10.32;;
11935;SDS011;6027;48.576;9.180;2023-06-14T11:42:22;12.20;;;11.20;;
11935;SDS011;6027;48.576;9.180;2023-06-14T11:44:48;12.02;;;10.82;;
11935;SDS011;6027;48.576;9.180;2023-06-14T11:47:14;13.10;;;12.00;;
11935;SDS011;6027;48.576;9.180;2023-06-14T11:49:39;11.98;;;10.82;;
11935;SDS011;6027;48.576;9.180;2023-06-14T11:52:05;13.60;;;12.60;;
11935;SDS011;6027;48.576;9.180;2023-06-14T11:54:31;10.88;;;10.07;;
11935;SDS011;6027;48.576;9.180;2023-06-14T11:56:57;12.43;;;11.32;;
11935;SDS011;6027;48.576;9.180;2023-06-14T11:59:23;13.18;;;12.27;;
11935;SDS011;6027;48.576;9.180;2023-06-14T12:01:49;10.95;;;10.13;;
11935;SDS011;6027;48.576;9.180;2023-06-14T12:04:22;12.77;;;11.52;;
11935;SDS011;6027;48.576;9.180;2023-06-14T12:06:50;11.38;;;10.48;;
11935;SDS011;6027;48.576;9.180;2023-06-14T12:09:18;12.05;;;11.27;;
11935;SDS011;6027;48.576;9.180;2023-06-14T12:11:44;13.18;;;12.00;;
11935;SDS011;6027;48.576;9.180;2023-06-14T12:14:10;12.55;;;11.73;;
11935;SDS011;6027;48.576;9.180;2023-06-14T12:16:37;10.43;;;9.57;;
11935;SDS011;6027;48.576;9.180;2023-06-14T12:19:15;12.27;;;11.38;;
11935;SDS011;6027;48.576;9.180;2023-06-14T12:21:42;12.18;;;10.93;;
11935;SDS011;6027;48.576;9.180;2023-06-14T12:24:12;12.38;;;11.40;;
11935;SDS011;6027;48.576;9.180;2023-06-14T12:26:38;11.30;;;10.50;;
11935;SDS011;6027;48.576;9.180;2023-06-14T12:29:05;12.15;;;11.27;;
11935;SDS011;6027;48.576;9.180;2023-06-14T12:31:32;13.15;;;12.00;;
11935;SDS011;6027;48.576;9.180;2023-06-14T12:33:57;11.73;;;10.43;;
11935;SDS011;6027;48.576;9.180;2023-06-14T12:36:23;12.38;;;11.27;;
11935;SDS011;6027;48.576;9.180;2023-06-14T12:38:48;12.50;;;11.60;;
11935;SDS011;6027;48.576;9.180;2023-06-14T12:41:14;11.75;;;10.80;;
11935;SDS011;6027;48.576;9.180;2023-06-14T12:43:40;11.73;;;10.95;;
11935;SDS011;6027;48.576;9.180;2023-06-14T12:46:05;12.13;;;11.13;;
11935;SDS011;6027;48.576;9.180;2023-06-14T12:48:31;12.05;;;11.00;;
11935;SDS011;6027;48.576;9.180;2023-06-14T12:50:57;10.90;;;10.15;;
11935;SDS011;6027;48.576;9.180;2023-06-14T12:53:23;12.32;;;11.10;;
11935;SDS011;6027;48.576;9.180;2023-06-14T12:55:48;11.50;;;10.60;;
11935;SDS011;6027;48.576;9.180;2023-06-14T12:58:14;11.23;;;10.38;;
11935;SDS011;6027;48.576;9.180;2023-06-14T13:00:42;11.05;;;10.35;;
11935;SDS011;6027;48.576;9.180;2023-06-14T13:03:07;10.68;;;9.68;;
11935;SDS011;6027;48.576;9.180;2023-06-14T13:05:33;11.88;;;10.88;;
11935;SDS011;6027;48.576;9.180;2023-06-14T13:07:59;10.63;;;9.98;;
11935;SDS011;6027;48.576;9.180;2023-06-14T13:10:24;12.00;;;11.05;;
11935;SDS011;6027;48.576;9.180;2023-06-14T13:12:51;16.15;;;10.45;;
11935;SDS011;6027;48.576;9.180;2023-06-14T13:15:17;10.95;;;10.18;;
11935;SDS011;6027;48.576;9.180;2023-06-14T13:17:42;10.02;;;9.38;;
11935;SDS011;6027;48.576;9.180;2023-06-14T13:20:13;10.63;;;9.82;;
11935;SDS011;6027;48.576;9.180;2023-06-14T13:22:39;13.10;;;12.15;;
11935;SDS011;6027;48.576;9.180;2023-06-14T13:25:04;11.93;;;10.85;;
11935;SDS011;6027;48.576;9.180;2023-06-14T13:27:31;11.82;;;10.63;;
11935;SDS011;6027;48.576;9.180;2023-06-14T13:29:56;11.88;;;11.02;;
11935;SDS011;6027;48.576;9.180;2023-06-14T13:32:22;11.40;;;10.60;;
11935;SDS011;6027;48.576;9.180;2023-06-14T13:34:48;10.95;;;10.15;;
11935;SDS011;6027;48.576;9.180;2023-06-14T13:37:14;12.30;;;11.45;;
11935;SDS011;6027;48.576;9.180;2023-06-14T13:39:40;11.23;;;9.93;;
11935;SDS011;6027;48.576;9.180;2023-06-14T13:42:05;11.77;;;10.88;;
11935;SDS011;6027;48.576;9.180;2023-06-14T13:44:31;12.00;;;11.20;;
11935;SDS011;6027;48.576;9.180;2023-06-14T13:46:56;12.00;;;11.10;;
11935;SDS011;6027;48.576;9.180;2023-06-14T13:49:22;11.02;;;10.23;;
11935;SDS011;6027;48.576;9.180;2023-06-14T13:51:47;12.30;;;11.32;;
11935;SDS011;6027;48.576;9.180;2023-06-14T13:54:13;11.20;;;10.40;;
11935;SDS011;6027;48.576;9.180;2023-06-14T13:56:40;12.35;;;11.35;;
11935;SDS011;6027;48.576;9.180;2023-06-14T13:59:06;13.38;;;12.23;;
11935;SDS011;6027;48.576;9.180;2023-06-14T14:01:31;10.38;;;9.35;;
11935;SDS011;6027;48.576;9.180;2023-06-14T14:03:57;12.05;;;11.15;;
11935;SDS011;6027;48.576;9.180;2023-06-14T14:06:23;11.07;;;10.27;;
11935;SDS011;6027;48.576;9.180;2023-06-14T14:08:49;11.63;;;10.65;;
11935;SDS011;6027;48.576;9.180;2023-06-14T14:11:14;11.23;;;10.52;;
11935;SDS011;6027;48.576;9.180;2023-06-14T14:13:41;12.38;;;11.50;;
11935;SDS011;6027;48.576;9.180;2023-06-14T14:16:07;10.73;;;9.93;;
11935;SDS011;6027;48.576;9.180;2023-06-14T14:18:33;12.02;;;11.18;;
11935;SDS011;6027;48.576;9.180;2023-06-14T14:20:58;11.15;;;10.25;;
11935;SDS011;6027;48.576;9.180;2023-06-14T14:23:24;11.80;;;11.00;;
11935;SDS011;6027;48.576;9.180;2023-06-14T14:25:49;10.10;;;9.30;;
11935;SDS011;6027;48.576;9.180;2023-06-14T14:28:15;11.70;;;10.80;;
11935;SDS011;6027;48.576;9.180;2023-06-14T14:30:45;10.60;;;9.90;;
11935;SDS011;6027;48.576;9.180;2023-06-14T14:33:12;12.18;;;11.30;;
11935;SDS011;6027;48.576;9.180;2023-06-14T14:35:44;11.18;;;10.18;;
11935;SDS011;6027;48.576;9.180;2023-06-14T14:38:13;13.30;;;10.95;;
11935;SDS011;6027;48.576;9.180;2023-06-14T14:40:40;11.43;;;10.63;;
11935;SDS011;6027;48.576;9.180;2023-06-14T14:43:06;11.48;;;10.68;;
11935;SDS011;6027;48.576;9.180;2023-06-14T14:45:31;11.90;;;10.98;;
11935;SDS011;6027;48.576;9.180;2023-06-14T14:47:57;12.75;;;11.82;;
11935;SDS011;6027;48.576;9.180;2023-06-14T14:50:22;11.40;;;10.25;;
11935;SDS011;6027;48.576;9.180;2023-06-14T14:52:48;12.38;;;11.48;;
11935;SDS011;6027;48.576;9.180;2023-06-14T14:55:14;10.98;;;10.20;;
11935;SDS011;6027;48.576;9.180;2023-06-14T14:57:39;12.57;;;11.32;;
11935;SDS011;6027;48.576;9.180;2023-06-14T15:00:05;10.63;;;9.82;;
11935;SDS011;6027;48.576;9.180;2023-06-14T15:02:31;11.65;;;10.95;;
11935;SDS011;6027;48.576;9.180;2023-06-14T15:04:57;12.15;;;11.35;;